Hauptseite
Satellitenwetter 10-Tage PrognosenKlimaSeewetter Wirbelstürme Blitz FlughäfenFAQ Newsletter Über uns
Wetter : Europa Afrika Nordamerika Südamerika Asien Australien-Ozeanien Andere
Sprachen Kontakt

Newquay Cornwall, England

Newquay Cornwall Airport

Breite: 50-26N, Länge: 005-00W, Höhe: 119 m


METAR: EGHQ 312050Z 34009KT 9999 FEW014 13/11 Q1019
TAF: EGHQ 311702Z 3118/3121 33012KT 9999 SCT015 PROB30 TEMPO 3118/3121 BKN014

Zeit: 02:48 (01:48 UTC)

Beobachtung

Neuester Wetterbericht von vor 4 Stunden und 58 Minuten, um 20:50 UTC
Wind 9 kt aus Nord/Nordwest
Temperatur 13°C
Luftfeuchtigkeit 88%
Luftdruck 1019 hPa
Sichtweite 10 km oder mehr
Leicht bewölkt in der Höhe von 1400 ft

Maßeinheiten ändern

Prognose

Neuester Wetterbericht von vor 8 Stunden und 46 Minuten, um 17:02 UTC
Gültige Prognose vom 31 um 18 UTC bis 31 um 21 UTC
Wind 12 kt aus Nord/Nordwest
Sichtweite 10 km oder mehr
Aufgelockert bewölkt in der Höhe von 1500 ft
Wahrscheinlichkeit 30% :
Zeitweise
vom 31 um 18 UTC bis 31 um 21 UTC
Durchbrochene Bewölkung in der Höhe von 1400 ft
Die Angaben auf diesen Webseiten unterliegen einer Erklärung über den Haftungsausschluss
Wetter : Europa Afrika Nordamerika Südamerika Asien Australien-Ozeanien Andere
Satellitenwetter 10-Tage PrognosenKlimaSeewetter Wirbelstürme Blitz FlughäfenFAQ Sprachen Kontakt Newsletter Über uns